Terminal Aerodrome Forecast
Issued by NWS

Home | Current Version | Previous Version | Text Only | Print | Product List | Glossary On
Versions: 1 2 3 4 5 6 7 8 9 10 11 12 13 14
537
FTPA31 PHFO 281126
TAFHMK
TAF
PHMK 281126Z 2812/2912 04010KT P6SM VCSH FEW025 SCT045
     FM282000 04016G24KT P6SM FEW025 SCT045
     FM290500 04010G18KT P6SM VCSH SCT025 BKN045=

USA.gov is the U.S. government's official web portal to all federal, state and local government web resources and services.